createdAt,value
2023-05-08T05:21:39.791Z,83.8
2023-05-08T05:23:00.406Z,88.8
2023-05-08T06:04:04.798Z,88.4
2023-05-08T06:05:14.713Z,85.9
2023-05-08T06:06:32.947Z,86.6
2023-05-08T06:07:35.013Z,86.5
2023-05-08T06:08:36.919Z,85.2
2023-05-08T06:09:39.911Z,84.9
2023-05-08T06:10:41.964Z,84.8
2023-05-08T06:11:43.994Z,85.3
2023-05-08T06:12:45.964Z,85.3
2023-05-08T06:13:49.157Z,85.7
2023-05-08T06:14:51.533Z,85.9
2023-05-08T06:15:53.546Z,85.2
2023-05-08T06:16:55.611Z,85.9
2023-05-08T06:17:57.531Z,85.7
2023-05-08T06:18:59.520Z,84.8
2023-05-08T06:20:01.587Z,85
2023-05-08T06:21:03.631Z,85.4
2023-05-08T06:22:07.615Z,86.2
2023-05-08T06:24:11.539Z,86.6
2023-05-08T06:25:13.837Z,85.6
2023-05-08T06:26:15.525Z,85.3
2023-05-08T06:27:17.600Z,86
2023-05-08T06:28:19.538Z,86.4
2023-05-08T06:29:21.539Z,85.6
2023-05-08T06:30:54.797Z,86.3
2023-05-08T06:31:25.812Z,85.8
2023-05-08T06:32:27.888Z,85.9
2023-05-08T06:33:29.782Z,86.1
2023-05-08T06:34:31.820Z,86.3
2023-05-08T06:35:33.827Z,84.9
2023-05-08T06:36:35.772Z,85.1
2023-05-08T06:37:37.787Z,85.7
2023-05-08T06:38:39.847Z,86.1
2023-05-08T06:39:41.794Z,85.8
2023-05-08T06:40:43.802Z,85.7
2023-05-08T06:42:47.780Z,84.4
2023-05-08T06:43:49.783Z,85.3
2023-05-08T07:32:14.189Z,84.3
2023-05-08T07:32:15.643Z,84.6
2023-05-08T07:32:53.653Z,78
2023-05-08T07:33:55.473Z,79.1
2023-05-08T07:34:57.421Z,81
2023-05-08T07:46:45.831Z,76.1
2023-05-08T07:47:47.764Z,76.1
2023-05-08T07:50:25.452Z,75.9
2023-05-08T07:54:42.320Z,75.3
2023-05-08T07:55:49.727Z,75.5
2023-05-08T07:57:01.567Z,75.6
2023-05-08T08:00:13.344Z,76.2
2023-05-08T08:00:17.094Z,75.9
2023-05-08T08:01:27.974Z,75.4
2023-05-08T08:02:30.305Z,75.3
2023-05-08T08:05:37.090Z,74.2
2023-05-08T08:09:42.382Z,71.5
2023-05-08T08:10:42.439Z,71.8
2023-05-08T08:11:55.893Z,73.4
2023-05-08T08:12:42.436Z,73.2
2023-05-08T08:13:42.538Z,72.4
2023-05-08T08:14:42.400Z,70
2023-05-08T08:15:42.383Z,71.3
2023-05-08T08:16:59.510Z,71.4
2023-05-08T08:21:21.580Z,72.9
2023-05-08T08:23:36.565Z,70.8
2023-05-08T08:58:38.121Z,69.3
2023-05-08T08:58:39.017Z,70
2023-05-08T08:59:12.786Z,68.4
2023-05-08T09:00:14.800Z,65.8
2023-05-08T09:01:18.885Z,65.8
2023-05-08T09:02:21.907Z,66.3
2023-05-08T09:03:24.914Z,68.1
2023-05-08T09:04:26.833Z,67.2
2023-05-08T09:05:28.792Z,68.6
2023-05-08T09:06:30.825Z,70
2023-05-08T09:07:32.821Z,69.2
2023-05-08T09:08:34.806Z,68.6
2023-05-08T09:09:37.829Z,67.8
2023-05-08T09:10:40.806Z,67.8
2023-05-08T09:11:42.891Z,66.2
2023-05-08T09:12:44.886Z,67.5
2023-05-08T09:13:46.802Z,67.6
2023-05-08T09:14:48.802Z,67.6
2023-05-08T09:15:50.971Z,67.4
2023-05-08T09:16:52.889Z,67.4
2023-05-08T09:17:54.913Z,67
2023-05-08T09:18:56.870Z,68.6
2023-05-08T09:19:58.814Z,66.7
2023-05-08T09:21:00.828Z,65.1
2023-05-08T09:23:18.611Z,65.7
2023-05-08T09:23:42.458Z,68.4
2023-05-08T09:24:42.489Z,68.1
2023-05-08T09:25:42.491Z,67.4
2023-05-08T09:26:42.471Z,66.8
2023-05-08T09:27:42.504Z,67
2023-05-08T09:28:42.431Z,66.1
2023-05-08T09:29:42.522Z,65.3
2023-05-08T09:31:42.514Z,65.3
2023-05-08T09:32:42.488Z,64.3
2023-05-08T09:34:46.746Z,65.5
2023-05-08T09:35:48.695Z,63.3
2023-05-08T09:36:51.328Z,65.9
2023-05-08T09:37:54.252Z,64.3
2023-05-08T09:38:55.314Z,65.2
2023-05-08T09:39:57.389Z,64.8
2023-05-08T09:40:59.319Z,64.8
2023-05-08T09:42:01.375Z,64.2
2023-05-08T09:43:03.318Z,63.3
2023-05-08T09:44:42.559Z,63.2
2023-05-08T09:45:42.714Z,63.7
2023-05-08T09:46:42.460Z,63.6
2023-05-08T09:47:42.539Z,63.8
2023-05-08T09:49:42.510Z,63
2023-05-08T09:50:43.637Z,62.6
2023-05-08T09:51:42.460Z,61.7
2023-05-08T09:52:42.515Z,61.7
2023-05-08T09:53:42.456Z,62.4
2023-05-08T09:54:42.523Z,62.4
2023-05-08T09:55:42.466Z,60.6
2023-05-08T09:56:42.521Z,61.8
2023-05-08T09:59:42.585Z,61.7
2023-05-08T10:01:47.402Z,63.1
2023-05-08T10:02:49.310Z,61.8
2023-05-08T10:03:51.378Z,62.2
2023-05-08T10:04:53.413Z,61.7
2023-05-08T10:05:55.360Z,61.6
2023-05-08T10:06:57.333Z,60.9
2023-05-08T10:07:59.417Z,60.8
2023-05-08T10:09:02.309Z,61.4
2023-05-08T10:10:04.333Z,63.6
2023-05-08T10:12:09.325Z,62.4
2023-05-08T10:13:11.492Z,61.8
2023-05-08T10:14:13.376Z,62.3
2023-05-08T10:15:15.314Z,63
2023-05-08T10:16:17.384Z,61.2
2023-05-08T10:17:19.438Z,61.8
2023-05-08T10:18:21.341Z,61.8
2023-05-08T10:19:23.330Z,62.4
2023-05-08T10:20:25.344Z,61.1
2023-05-08T10:21:27.322Z,61.2
2023-05-08T10:22:29.416Z,62
2023-05-08T10:23:42.481Z,63.3
2023-05-08T10:25:42.520Z,63.7
2023-05-08T10:26:53.717Z,62.8
2023-05-08T10:28:42.619Z,61.2
2023-05-08T16:55:27.066Z,61.1
2023-05-08T16:55:27.327Z,59.8
2023-05-08T16:58:33.085Z,58.9
2023-05-08T16:58:33.581Z,58.5
2023-05-08T16:59:06.781Z,58.6
2023-05-08T17:00:08.800Z,59.3
2023-05-08T17:01:10.872Z,59.2
2023-05-08T17:03:14.831Z,60.6
2023-05-08T17:05:19.310Z,60.3
2023-05-08T17:06:21.296Z,60.3
2023-05-08T17:08:41.904Z,59.6
2023-05-08T17:08:42.425Z,61
2023-05-08T17:16:54.717Z,60.7
2023-05-08T17:16:56.049Z,59.2
2023-05-08T17:17:09.227Z,59.8
2023-05-08T17:19:03.341Z,57.6
2023-05-08T17:20:07.319Z,57.1
2023-05-08T17:21:11.324Z,56.7
2023-05-08T18:10:26.073Z,55.9
2023-05-08T18:10:26.488Z,55.7
2023-05-08T18:10:55.790Z,60.3
2023-05-08T18:11:58.395Z,60.7
2023-05-08T18:13:00.441Z,60.2
2023-05-08T18:16:57.316Z,61.3
2023-05-08T18:17:08.784Z,62
2023-05-08T18:18:10.821Z,61.7
2023-05-08T18:51:44.763Z,61.7
2023-05-08T19:00:38.251Z,64.3
2023-05-08T19:00:38.753Z,64.3
2023-05-08T19:02:37.193Z,65.7
2023-05-08T19:03:37.162Z,66.1
2023-05-08T19:04:37.109Z,66.3
2023-05-08T19:06:37.183Z,66.6
2023-05-08T19:07:37.236Z,68.8
2023-05-08T19:09:37.107Z,67.8
2023-05-08T19:10:37.152Z,68.2
2023-05-08T19:17:07.941Z,67.4
2023-05-08T19:17:08.225Z,67.6
2023-05-08T19:17:37.238Z,68.7
2023-05-08T19:18:37.129Z,68.5
2023-05-08T19:19:37.121Z,69.1
2023-05-08T19:22:41.823Z,69
2023-05-08T19:23:45.794Z,68.7
2023-05-08T19:24:47.769Z,68.8
2023-05-08T19:25:49.765Z,69
2023-05-08T19:29:37.164Z,69.8
2023-05-08T19:30:37.129Z,69.8
